createdAt,value
2022-09-09T00:01:52.721Z,98684.56
2022-09-09T00:04:28.276Z,98682.88
2022-09-09T00:07:05.524Z,98678.66
2022-09-09T00:09:42.771Z,98686.31
2022-09-09T00:12:15.118Z,98683.66
2022-09-09T00:14:51.293Z,98684.41
2022-09-09T00:17:36.337Z,98690.19
2022-09-09T00:20:14.056Z,98683.63
2022-09-09T00:22:48.084Z,98676.78
2022-09-09T00:25:25.567Z,98677.56
2022-09-09T00:27:53.486Z,98677.25
2022-09-09T00:30:23.970Z,98680.06
2022-09-09T00:32:59.175Z,98678.03
2022-09-09T00:35:32.166Z,98670.06
2022-09-09T00:38:15.282Z,98682.88
2022-09-09T00:40:51.337Z,98680.19
2022-09-09T00:43:27.879Z,98689.88
2022-09-09T00:46:31.196Z,98690.63
2022-09-09T00:49:06.978Z,98702.81
2022-09-09T00:51:51.154Z,98693.72
2022-09-09T00:54:30.666Z,98697.19
2022-09-09T00:57:08.626Z,98695.31
2022-09-09T00:59:48.538Z,98698.09
2022-09-09T01:02:27.778Z,98696.59
2022-09-09T01:04:55.778Z,98697.22
2022-09-09T01:07:24.108Z,98700.97
2022-09-09T01:09:59.082Z,98692.81
2022-09-09T01:12:34.549Z,98698.31
2022-09-09T01:15:11.006Z,98692.84
2022-09-09T01:17:54.771Z,98695.00
2022-09-09T01:20:26.730Z,98692.06
2022-09-09T01:23:13.234Z,98680.19
2022-09-09T01:26:16.689Z,98683.28
2022-09-09T01:28:47.491Z,98685.28
2022-09-09T01:31:21.847Z,98687.34
2022-09-09T01:33:50.348Z,98681.91
2022-09-09T01:36:26.986Z,98677.38
2022-09-09T01:38:55.422Z,98673.63
2022-09-09T01:41:24.939Z,98678.31
2022-09-09T01:44:07.937Z,98671.84
2022-09-09T01:46:37.461Z,98664.94
2022-09-09T01:49:09.228Z,98664.72
2022-09-09T01:51:38.483Z,98675.34
2022-09-09T01:54:09.311Z,98672.84
2022-09-09T01:56:47.059Z,98676.56
2022-09-09T01:59:47.253Z,98665.16
2022-09-09T02:02:20.295Z,98674.50
2022-09-09T02:05:13.497Z,98668.25
2022-09-09T02:07:44.027Z,98671.56
2022-09-09T02:10:30.760Z,98676.09
2022-09-09T02:13:13.388Z,98669.31
2022-09-09T02:15:49.316Z,98667.63
2022-09-09T02:18:21.642Z,98665.78
2022-09-09T02:20:50.140Z,98664.94
2022-09-09T02:23:18.812Z,98663.84
2022-09-09T02:25:52.592Z,98666.94
2022-09-09T02:28:29.194Z,98661.47
2022-09-09T02:30:59.400Z,98671.66
2022-09-09T02:33:39.475Z,98668.97
2022-09-09T02:36:10.825Z,98664.22
2022-09-09T02:38:51.391Z,98662.50
2022-09-09T02:41:22.719Z,98663.56
2022-09-09T02:43:52.625Z,98662.13
2022-09-09T02:46:32.113Z,98663.06
2022-09-09T02:49:04.715Z,98667.34
2022-09-09T02:51:45.378Z,98669.47
2022-09-09T02:54:23.015Z,98667.09
2022-09-09T02:56:55.147Z,98661.09
2022-09-09T02:59:30.305Z,98659.59
2022-09-09T03:01:58.764Z,98663.75
2022-09-09T03:04:26.947Z,98660.41
2022-09-09T03:06:55.060Z,98663.03
2022-09-09T03:09:23.160Z,98661.94
2022-09-09T03:11:51.636Z,98659.28
2022-09-09T03:14:25.395Z,98666.84
2022-09-09T03:16:57.367Z,98659.25
2022-09-09T03:19:25.924Z,98654.66
2022-09-09T03:21:53.768Z,98661.63
2022-09-09T03:24:22.345Z,98659.41
2022-09-09T03:26:51.502Z,98661.34
2022-09-09T03:29:19.886Z,98667.88
2022-09-09T03:31:47.929Z,98662.94
2022-09-09T03:34:17.438Z,98662.00
2022-09-09T03:36:45.526Z,98646.78
2022-09-09T03:39:13.262Z,98639.94
2022-09-09T03:41:46.288Z,98643.91
2022-09-09T03:44:14.443Z,98644.03
2022-09-09T03:46:43.545Z,98651.75
2022-09-09T03:49:12.233Z,98647.69
2022-09-09T03:51:41.739Z,98636.28
2022-09-09T03:54:11.291Z,98639.34
2022-09-09T03:56:40.480Z,98635.63
2022-09-09T03:59:09.589Z,98642.66
2022-09-09T04:01:37.441Z,98643.78
2022-09-09T04:04:05.222Z,98655.59
2022-09-09T04:06:33.077Z,98645.41
2022-09-09T04:09:03.462Z,98651.00
2022-09-09T04:11:32.743Z,98642.25
2022-09-09T04:14:01.583Z,98651.19
2022-09-09T04:16:30.895Z,98653.03
2022-09-09T04:19:00.688Z,98650.63
2022-09-09T04:21:28.541Z,98660.44
2022-09-09T04:23:56.565Z,98665.19
2022-09-09T04:26:26.935Z,98670.06
2022-09-09T04:28:54.989Z,98671.47
2022-09-09T04:31:25.157Z,98680.31
2022-09-09T04:33:58.255Z,98682.09
2022-09-09T04:36:27.738Z,98679.91
2022-09-09T04:38:59.798Z,98670.31
2022-09-09T04:41:29.209Z,98677.22
2022-09-09T04:43:57.021Z,98680.56
2022-09-09T04:46:25.540Z,98681.53
2022-09-09T04:48:53.674Z,98689.84
2022-09-09T04:51:22.958Z,98679.66
2022-09-09T04:53:52.070Z,98677.56
2022-09-09T04:56:20.992Z,98673.81
2022-09-09T04:58:59.577Z,98674.31
2022-09-09T05:01:41.779Z,98687.31
2022-09-09T05:04:09.982Z,98686.88
2022-09-09T05:06:38.290Z,98677.94
2022-09-09T05:09:06.929Z,98683.03
2022-09-09T05:11:37.644Z,98690.69
2022-09-09T05:14:15.690Z,98678.78
2022-09-09T05:16:45.329Z,98688.47
2022-09-09T05:19:13.424Z,98683.28
2022-09-09T05:21:47.424Z,98681.91
2022-09-09T05:24:18.730Z,98688.59
2022-09-09T05:26:49.483Z,98689.47
2022-09-09T05:29:20.337Z,98695.16
2022-09-09T05:31:49.148Z,98714.03
2022-09-09T05:34:20.513Z,98711.94
2022-09-09T05:36:48.488Z,98718.00
2022-09-09T05:39:18.116Z,98722.53
2022-09-09T05:41:46.097Z,98724.28
2022-09-09T05:44:14.397Z,98721.63
2022-09-09T05:46:43.624Z,98722.84
2022-09-09T05:49:12.979Z,98723.31
2022-09-09T05:51:43.802Z,98727.75
2022-09-09T05:54:16.288Z,98728.09
2022-09-09T05:56:51.494Z,98725.34
2022-09-09T05:59:19.747Z,98733.72
2022-09-09T06:01:55.309Z,98724.81
2022-09-09T06:04:37.947Z,98732.34
2022-09-09T06:07:06.604Z,98731.59
2022-09-09T06:09:34.425Z,98727.03
2022-09-09T06:12:03.137Z,98728.59
2022-09-09T06:14:34.501Z,98728.91
2022-09-09T06:17:03.369Z,98731.78
2022-09-09T06:19:32.090Z,98731.50
2022-09-09T06:22:02.365Z,98727.69
2022-09-09T06:24:33.915Z,98733.47
2022-09-09T06:27:02.830Z,98733.69
2022-09-09T06:29:34.452Z,98732.44
2022-09-09T06:32:03.932Z,98743.91
2022-09-09T06:34:32.287Z,98736.91
2022-09-09T06:37:02.640Z,98736.59
2022-09-09T06:39:37.041Z,98733.09
2022-09-09T06:42:05.414Z,98725.44
2022-09-09T06:44:56.242Z,98723.44
2022-09-09T06:47:38.003Z,98734.56
2022-09-09T06:50:08.474Z,98739.09
2022-09-09T06:52:38.551Z,98735.31
2022-09-09T06:55:07.736Z,98739.88
2022-09-09T06:57:37.683Z,98742.63
2022-09-09T07:00:15.684Z,98745.00
2022-09-09T07:02:43.530Z,98740.06
2022-09-09T07:05:13.482Z,98740.72
2022-09-09T07:07:45.026Z,98737.25
2022-09-09T07:10:14.487Z,98744.25
2022-09-09T07:12:42.317Z,98736.34
2022-09-09T07:15:12.481Z,98735.41
2022-09-09T07:17:44.407Z,98739.34
2022-09-09T07:20:12.688Z,98745.28
2022-09-09T07:22:40.646Z,98742.00
2022-09-09T07:25:10.914Z,98748.09
2022-09-09T07:27:39.031Z,98748.91
2022-09-09T07:30:08.577Z,98750.66
2022-09-09T07:32:36.849Z,98752.19
2022-09-09T07:35:05.062Z,98744.03
2022-09-09T07:37:32.802Z,98748.09
2022-09-09T07:40:00.685Z,98751.69
2022-09-09T07:42:30.151Z,98753.16
2022-09-09T07:44:58.073Z,98750.06
2022-09-09T07:47:25.921Z,98751.78
2022-09-09T07:49:53.824Z,98745.28
2022-09-09T07:52:28.545Z,98759.97
2022-09-09T07:55:01.514Z,98760.50
2022-09-09T07:57:32.161Z,98759.66
2022-09-09T08:00:00.256Z,98767.50
2022-09-09T08:02:30.373Z,98765.84
2022-09-09T08:04:58.507Z,98760.19
2022-09-09T08:07:27.143Z,98764.03
2022-09-09T08:09:56.686Z,98755.22
2022-09-09T08:12:29.004Z,98759.53
2022-09-09T08:14:58.991Z,98756.34
2022-09-09T08:17:31.014Z,98761.00
2022-09-09T08:20:05.923Z,98769.88
2022-09-09T08:22:35.230Z,98765.38
2022-09-09T08:25:03.228Z,98763.16
2022-09-09T08:27:33.177Z,98765.53
2022-09-09T08:30:02.422Z,98767.94
2022-09-09T08:32:31.701Z,98767.91
2022-09-09T08:35:01.590Z,98776.72
2022-09-09T08:37:31.059Z,98758.53
2022-09-09T08:39:58.857Z,98760.63
2022-09-09T08:42:38.256Z,98769.97
2022-09-09T08:45:32.253Z,98780.06
2022-09-09T08:48:22.721Z,98780.59
2022-09-09T08:50:53.009Z,98780.50
2022-09-09T08:53:31.295Z,98770.16
2022-09-09T08:56:01.436Z,98774.53
2022-09-09T08:58:46.007Z,98769.63
2022-09-09T09:01:32.759Z,98768.63
2022-09-09T09:04:14.680Z,98776.03
2022-09-09T09:06:54.887Z,98777.50
2022-09-09T09:09:29.338Z,98773.59
2022-09-09T09:12:01.978Z,98775.16
2022-09-09T09:14:37.860Z,98772.56
2022-09-09T09:17:16.062Z,98771.38
2022-09-09T09:19:45.170Z,98770.28
2022-09-09T09:22:21.049Z,98775.38
2022-09-09T09:24:56.089Z,98778.75
2022-09-09T09:27:35.063Z,98773.53
2022-09-09T09:30:29.419Z,98762.16
2022-09-09T09:33:08.219Z,98764.28
2022-09-09T09:35:40.519Z,98770.53
2022-09-09T09:41:07.819Z,98757.22
2022-09-09T09:43:38.340Z,98763.56
2022-09-09T09:46:21.812Z,98759.84
2022-09-09T09:49:00.936Z,98757.97
2022-09-09T09:51:31.505Z,98762.31
2022-09-09T09:54:11.635Z,98758.38
2022-09-09T09:56:41.224Z,98741.59
2022-09-09T09:59:23.837Z,98745.03
2022-09-09T10:02:18.495Z,98742.22
2022-09-09T10:04:50.881Z,98737.84
2022-09-09T10:07:21.067Z,98729.53
2022-09-09T10:09:54.636Z,98733.22
2022-09-09T10:12:45.211Z,98723.53
2022-09-09T10:15:35.599Z,98739.44
2022-09-09T10:18:12.934Z,98730.78
2022-09-09T10:20:52.015Z,98731.88
2022-09-09T10:23:48.629Z,98726.16
2022-09-09T10:26:34.327Z,98735.00
2022-09-09T10:29:26.338Z,98719.44
2022-09-09T10:32:05.832Z,98706.78
2022-09-09T10:34:57.168Z,98718.69
2022-09-09T10:37:43.049Z,98725.81
2022-09-09T10:40:28.118Z,98716.28
2022-09-09T10:43:03.133Z,98720.81
2022-09-09T10:45:38.322Z,98722.09
2022-09-09T10:48:22.210Z,98717.47
2022-09-09T10:51:03.967Z,98707.59
2022-09-09T10:53:48.359Z,98713.72
2022-09-09T10:56:21.970Z,98719.94
2022-09-09T10:58:53.784Z,98729.63
2022-09-09T11:01:25.933Z,98741.78
2022-09-09T11:03:59.327Z,98730.72
2022-09-09T11:06:33.695Z,98771.72
2022-09-09T11:09:06.177Z,98776.41
2022-09-09T11:11:38.684Z,98790.56
2022-09-09T11:14:13.751Z,98783.53
2022-09-09T11:16:46.532Z,98781.66
2022-09-09T11:19:19.065Z,98785.22
2022-09-09T11:21:48.660Z,98792.28
2022-09-09T11:24:24.106Z,98783.81
2022-09-09T11:26:56.272Z,98790.00
2022-09-09T11:29:45.733Z,98780.47
2022-09-09T11:32:28.509Z,98784.50
2022-09-09T11:35:05.411Z,98785.16
2022-09-09T11:37:52.105Z,98778.94
2022-09-09T11:40:26.282Z,98768.00
2022-09-09T11:43:05.913Z,98761.78
2022-09-09T11:45:36.827Z,98763.59
2022-09-09T11:48:06.954Z,98758.63
2022-09-09T11:50:37.482Z,98756.84
2022-09-09T11:53:21.821Z,98763.84
2022-09-09T11:56:04.704Z,98754.38
2022-09-09T11:58:38.882Z,98756.00
2022-09-09T12:01:29.239Z,98756.69
2022-09-09T12:04:08.064Z,98755.88
2022-09-09T12:06:46.483Z,98749.94
2022-09-09T12:09:25.344Z,98745.41
2022-09-09T12:11:55.129Z,98745.63
2022-09-09T12:14:36.195Z,98738.69
2022-09-09T12:17:12.382Z,98748.78
2022-09-09T12:19:40.182Z,98742.78
2022-09-09T12:22:16.518Z,98741.31
2022-09-09T12:24:51.957Z,98729.94
2022-09-09T12:27:29.796Z,98728.75
2022-09-09T12:30:04.351Z,98726.25
2022-09-09T12:32:32.269Z,98732.03
2022-09-09T12:35:04.175Z,98735.50
2022-09-09T12:37:36.738Z,98718.69
2022-09-09T12:40:07.675Z,98720.19
2022-09-09T12:42:42.660Z,98722.84
2022-09-09T12:45:18.900Z,98727.75
2022-09-09T12:47:51.237Z,98722.75
2022-09-09T12:50:27.988Z,98712.31
2022-09-09T12:52:59.433Z,98720.38
2022-09-09T12:55:31.049Z,98707.09
2022-09-09T12:58:01.316Z,98708.25
2022-09-09T13:00:29.350Z,98716.84
2022-09-09T13:02:59.782Z,98709.19
2022-09-09T13:05:30.662Z,98702.81
2022-09-09T13:08:04.366Z,98712.47
2022-09-09T13:10:52.789Z,98711.28
2022-09-09T13:13:25.178Z,98696.91
2022-09-09T13:15:55.885Z,98698.66
2022-09-09T13:18:27.112Z,98699.69
2022-09-09T13:20:55.446Z,98690.38
2022-09-09T13:23:23.962Z,98688.53
2022-09-09T13:25:59.270Z,98683.88
2022-09-09T13:28:34.169Z,98682.53
2022-09-09T13:31:04.411Z,98679.34
2022-09-09T13:33:35.096Z,98680.66
2022-09-09T13:36:06.096Z,98679.47
2022-09-09T13:38:38.396Z,98673.94
2022-09-09T13:41:08.215Z,98677.59
2022-09-09T13:43:40.349Z,98679.66
2022-09-09T13:46:27.406Z,98671.31
2022-09-09T13:48:59.176Z,98663.50
2022-09-09T13:51:38.218Z,98673.63
2022-09-09T13:54:07.519Z,98668.31
2022-09-09T13:56:36.233Z,98664.66
2022-09-09T13:59:07.561Z,98664.44
2022-09-09T14:01:36.044Z,98661.34
2022-09-09T14:04:04.437Z,98659.25
2022-09-09T14:06:33.293Z,98661.59
2022-09-09T14:09:01.251Z,98669.06
2022-09-09T14:11:29.361Z,98675.06
2022-09-09T14:13:57.122Z,98667.59
2022-09-09T14:16:28.833Z,98660.63
2022-09-09T14:18:57.626Z,98664.97
2022-09-09T14:21:25.576Z,98665.28
2022-09-09T14:23:53.694Z,98672.47
2022-09-09T14:26:22.759Z,98661.66
2022-09-09T14:28:55.263Z,98664.22
2022-09-09T14:31:23.973Z,98669.66
2022-09-09T14:33:53.668Z,98666.34
2022-09-09T14:36:21.923Z,98660.81
2022-09-09T14:38:49.685Z,98654.69
2022-09-09T14:41:19.628Z,98659.53
2022-09-09T14:43:48.013Z,98654.81
2022-09-09T14:46:17.659Z,98652.47
2022-09-09T14:48:46.293Z,98652.53
2022-09-09T14:51:17.699Z,98654.72
2022-09-09T14:53:46.363Z,98644.94
2022-09-09T14:56:16.087Z,98651.50
2022-09-09T14:58:44.874Z,98661.38
2022-09-09T15:01:14.907Z,98661.72
2022-09-09T15:03:51.169Z,98662.53
2022-09-09T15:06:21.452Z,98666.72
2022-09-09T15:08:49.571Z,98662.59
2022-09-09T15:15:39.665Z,98673.03
2022-09-09T15:18:07.511Z,98684.94
2022-09-09T15:20:40.155Z,98692.06
2022-09-09T15:23:10.030Z,98711.88
2022-09-09T15:25:37.889Z,98736.66
2022-09-09T15:28:05.781Z,98731.47
2022-09-09T15:30:33.639Z,98726.34
2022-09-09T15:33:01.563Z,98722.47
2022-09-09T15:35:29.290Z,98717.41
2022-09-09T15:37:58.290Z,98709.13
2022-09-09T15:40:27.464Z,98703.47
2022-09-09T15:42:55.225Z,98699.59
2022-09-09T15:45:22.998Z,98708.03
2022-09-09T15:47:51.105Z,98697.28
2022-09-09T15:50:18.814Z,98690.38
2022-09-09T15:52:46.607Z,98688.16
2022-09-09T15:55:14.835Z,98679.28
2022-09-09T15:57:43.990Z,98676.44
2022-09-09T16:00:14.181Z,98667.94
2022-09-09T16:02:42.357Z,98675.53
2022-09-09T16:05:10.587Z,98672.44
2022-09-09T16:07:38.451Z,98665.94
2022-09-09T16:10:14.922Z,98677.13
2022-09-09T16:12:44.087Z,98680.41
2022-09-09T16:15:12.018Z,98681.06
2022-09-09T16:17:39.765Z,98687.97
2022-09-09T16:20:09.576Z,98682.97
2022-09-09T16:22:37.542Z,98683.50
2022-09-09T16:25:06.657Z,98681.75
2022-09-09T16:27:35.006Z,98692.34
2022-09-09T16:30:04.481Z,98680.47
2022-09-09T16:32:32.237Z,98680.56
2022-09-09T16:34:59.969Z,98680.41
2022-09-09T16:37:28.503Z,98683.06
2022-09-09T16:39:56.399Z,98685.34
2022-09-09T16:42:24.243Z,98698.78
2022-09-09T16:44:52.479Z,98691.28
2022-09-09T16:47:21.896Z,98697.97
2022-09-09T16:49:49.829Z,98699.75
2022-09-09T16:52:20.526Z,98706.91
2022-09-09T16:54:48.960Z,98712.13
2022-09-09T16:57:16.776Z,98712.91
2022-09-09T16:59:44.887Z,98717.38
2022-09-09T17:02:12.787Z,98719.56
2022-09-09T17:04:42.035Z,98721.13
2022-09-09T17:07:10.858Z,98725.78
2022-09-09T17:09:38.657Z,98733.63
2022-09-09T17:12:07.484Z,98722.97
2022-09-09T17:14:35.277Z,98719.75
2022-09-09T17:17:19.188Z,98730.25
2022-09-09T17:19:52.385Z,98727.25
2022-09-09T17:22:20.870Z,98727.25
2022-09-09T17:24:48.886Z,98734.13
2022-09-09T17:27:16.701Z,98726.00
2022-09-09T17:29:44.652Z,98742.75
2022-09-09T17:32:13.208Z,98739.72
2022-09-09T17:34:41.034Z,98745.34
2022-09-09T17:37:10.370Z,98751.66
2022-09-09T17:39:38.219Z,98755.78
2022-09-09T17:42:08.397Z,98760.88
2022-09-09T17:44:36.362Z,98766.41
2022-09-09T17:47:05.032Z,98758.41
2022-09-09T17:49:32.802Z,98753.75
2022-09-09T17:52:00.711Z,98759.41
2022-09-09T17:54:29.973Z,98750.72
2022-09-09T17:56:58.599Z,98755.88
2022-09-09T17:59:26.547Z,98760.28
2022-09-09T18:01:54.441Z,98758.72
2022-09-09T18:04:47.351Z,98763.00
2022-09-09T18:07:15.134Z,98767.44
2022-09-09T18:09:44.449Z,98757.34
2022-09-09T18:12:12.341Z,98765.81
2022-09-09T18:17:39.053Z,98765.56
2022-09-09T18:20:08.071Z,98757.59
2022-09-09T18:22:35.881Z,98764.34
2022-09-09T18:25:06.264Z,98764.34
2022-09-09T18:27:34.017Z,98758.16
2022-09-09T18:30:01.758Z,98759.63
2022-09-09T18:32:30.453Z,98767.59
2022-09-09T18:34:59.181Z,98766.16
2022-09-09T18:37:27.109Z,98760.47
2022-09-09T18:39:54.956Z,98769.00
2022-09-09T18:42:24.084Z,98770.94
2022-09-09T18:44:51.843Z,98765.31
2022-09-09T18:47:21.593Z,98768.03
2022-09-09T18:49:50.569Z,98773.50
2022-09-09T18:52:18.341Z,98777.28
2022-09-09T18:54:46.133Z,98779.63
2022-09-09T18:57:13.877Z,98772.78
2022-09-09T18:59:43.141Z,98789.09
2022-09-09T19:02:12.759Z,98791.34
2022-09-09T19:04:40.531Z,98795.59
2022-09-09T19:07:08.275Z,98801.53
2022-09-09T19:09:36.504Z,98799.47
2022-09-09T19:12:06.571Z,98796.63
2022-09-09T19:14:34.921Z,98809.66
2022-09-09T19:17:04.172Z,98821.69
2022-09-09T19:19:34.150Z,98814.38
2022-09-09T19:22:03.209Z,98834.25
2022-09-09T19:24:33.365Z,98832.59
2022-09-09T19:27:03.534Z,98839.53
2022-09-09T19:29:33.212Z,98832.16
2022-09-09T19:32:49.205Z,98843.13
2022-09-09T19:34:52.773Z,98842.69
2022-09-09T19:37:22.453Z,98843.09
2022-09-09T19:39:50.790Z,98844.88
2022-09-09T19:42:18.832Z,98854.41
2022-09-09T19:44:46.609Z,98851.28
2022-09-09T19:47:15.018Z,98846.19
2022-09-09T19:49:46.979Z,98862.03
2022-09-09T19:52:17.116Z,98855.06
2022-09-09T19:54:45.278Z,98854.44
2022-09-09T19:57:13.391Z,98857.53
2022-09-09T19:59:41.205Z,98855.91
2022-09-09T20:02:12.102Z,98855.22
2022-09-09T20:04:40.308Z,98856.88
2022-09-09T20:07:08.880Z,98847.72
2022-09-09T20:09:37.977Z,98847.84
2022-09-09T20:12:06.419Z,98844.59
2022-09-09T20:14:39.226Z,98842.44
2022-09-09T20:17:07.489Z,98851.47
2022-09-09T20:19:35.897Z,98846.13
2022-09-09T20:22:03.604Z,98845.22
2022-09-09T20:24:31.379Z,98843.34
2022-09-09T20:27:00.553Z,98840.09
2022-09-09T20:29:28.274Z,98849.69
2022-09-09T20:31:56.013Z,98844.53
2022-09-09T20:34:25.858Z,98847.47
2022-09-09T20:36:54.680Z,98845.16
2022-09-09T20:39:22.989Z,98844.41
2022-09-09T20:41:51.133Z,98838.00
2022-09-09T20:44:22.783Z,98839.16
2022-09-09T20:46:52.735Z,98839.19
2022-09-09T20:49:22.512Z,98843.69
2022-09-09T20:51:51.031Z,98845.72
2022-09-09T20:54:21.373Z,98856.19
2022-09-09T20:56:50.320Z,98854.88
2022-09-09T20:59:21.775Z,98854.06
2022-09-09T21:01:50.084Z,98871.44
2022-09-09T21:04:20.401Z,98860.78
2022-09-09T21:06:49.926Z,98870.22
2022-09-09T21:09:19.298Z,98863.47
2022-09-09T21:11:47.729Z,98862.50
2022-09-09T21:14:15.558Z,98858.94
2022-09-09T21:16:45.754Z,98860.84
2022-09-09T21:19:13.607Z,98862.84
2022-09-09T21:21:41.370Z,98854.41
2022-09-09T21:24:09.109Z,98853.78
2022-09-09T21:26:36.868Z,98870.84
2022-09-09T21:29:04.686Z,98862.25
2022-09-09T21:31:32.899Z,98860.97
2022-09-09T21:34:02.106Z,98870.22
2022-09-09T21:36:30.118Z,98873.53
2022-09-09T21:38:59.230Z,98873.03
2022-09-09T21:41:27.200Z,98872.28
2022-09-09T21:43:56.422Z,98871.94
2022-09-09T21:46:26.687Z,98866.81
2022-09-09T21:48:56.397Z,98877.28
2022-09-09T21:51:26.253Z,98876.81
2022-09-09T21:53:57.079Z,98871.47
2022-09-09T21:56:25.613Z,98868.19
2022-09-09T21:58:57.608Z,98872.09
2022-09-09T22:01:26.719Z,98878.97
2022-09-09T22:03:54.943Z,98886.63
2022-09-09T22:06:22.808Z,98893.06
2022-09-09T22:08:51.958Z,98895.53
2022-09-09T22:11:22.915Z,98893.19
2022-09-09T22:13:51.143Z,98893.50
2022-09-09T22:16:21.604Z,98894.88
2022-09-09T22:18:52.469Z,98887.53
2022-09-09T22:21:21.895Z,98877.50
2022-09-09T22:23:54.726Z,98888.97
2022-09-09T22:26:23.365Z,98881.31
2022-09-09T22:28:51.791Z,98880.50
2022-09-09T22:31:20.853Z,98878.16
2022-09-09T22:33:48.835Z,98888.34
2022-09-09T22:36:16.860Z,98886.50
2022-09-09T22:38:44.919Z,98888.81
2022-09-09T22:41:14.444Z,98888.38
2022-09-09T22:43:43.549Z,98890.72
2022-09-09T22:46:11.950Z,98892.59
2022-09-09T22:48:40.462Z,98892.28
2022-09-09T22:51:10.793Z,98886.97
2022-09-09T22:53:40.807Z,98890.72
2022-09-09T22:56:13.578Z,98886.50
2022-09-09T22:58:43.153Z,98882.75
2022-09-09T23:01:14.795Z,98882.59
2022-09-09T23:03:46.035Z,98888.38
2022-09-09T23:06:21.751Z,98878.53
2022-09-09T23:08:51.950Z,98880.06
2022-09-09T23:11:20.087Z,98887.75
2022-09-09T23:13:53.089Z,98888.53
2022-09-09T23:16:23.908Z,98886.19
2022-09-09T23:18:52.518Z,98898.22
2022-09-09T23:21:20.921Z,98896.81
2022-09-09T23:23:48.965Z,98897.75
2022-09-09T23:26:20.980Z,98894.09
2022-09-09T23:28:51.806Z,98900.28
2022-09-09T23:31:22.726Z,98901.97
2022-09-09T23:33:50.580Z,98897.59
2022-09-09T23:36:20.573Z,98904.78
2022-09-09T23:38:48.684Z,98899.63
2022-09-09T23:41:21.077Z,98891.47
2022-09-09T23:43:52.197Z,98890.56
2022-09-09T23:46:22.402Z,98883.22
2022-09-09T23:48:51.804Z,98884.09
2022-09-09T23:51:23.599Z,98884.44
2022-09-09T23:53:56.907Z,98883.97
2022-09-09T23:56:26.554Z,98871.59
2022-09-09T23:58:56.065Z,98874.69
